createdAt,value
2018-07-14T00:00:12.042Z,79.64
2018-07-14T00:01:12.543Z,79.55
2018-07-14T00:02:13.509Z,80.12
2018-07-14T00:03:12.541Z,79.64
2018-07-14T00:04:12.548Z,79.55
2018-07-14T00:05:15.075Z,79.74
2018-07-14T00:07:44.455Z,79.93
2018-07-14T00:08:44.462Z,80.03
2018-07-14T00:09:44.462Z,79.55
2018-07-14T00:12:16.244Z,79.83
2018-07-14T00:13:16.247Z,80.32
2018-07-14T00:14:16.247Z,80.03
2018-07-14T00:15:16.750Z,80.60
2018-07-14T00:17:48.138Z,79.89
2018-07-14T00:18:48.151Z,80.99
2018-07-14T00:19:48.152Z,80.70
2018-07-14T00:20:48.646Z,80.51
2018-07-14T00:21:48.647Z,80.66
2018-07-14T00:22:48.645Z,80.47
2018-07-14T00:23:48.645Z,80.66
2018-07-14T00:26:20.401Z,80.47
2018-07-14T00:27:20.406Z,80.37
2018-07-14T00:28:20.413Z,80.37
2018-07-14T00:29:22.838Z,80.94
2018-07-14T00:31:52.769Z,80.27
2018-07-14T00:32:52.774Z,80.47
2018-07-14T00:33:52.773Z,80.66
2018-07-14T00:34:52.774Z,80.27
2018-07-14T00:35:53.281Z,80.27
2018-07-14T00:36:53.273Z,80.37
2018-07-14T00:37:53.274Z,80.66
2018-07-14T00:38:52.771Z,80.37
2018-07-14T00:39:55.205Z,80.66
2018-07-14T00:40:53.779Z,80.18
2018-07-14T00:41:53.775Z,80.27
2018-07-14T00:42:53.778Z,80.66
2018-07-14T00:43:54.277Z,81.04
2018-07-14T00:44:54.274Z,81.33
2018-07-14T00:45:54.275Z,81.13
2018-07-14T00:46:54.281Z,80.85
2018-07-14T00:48:21.773Z,80.76
2018-07-14T00:48:56.232Z,80.85
2018-07-14T00:49:54.777Z,81.04
2018-07-14T00:50:54.773Z,81.13
2018-07-14T00:53:26.515Z,81.71
2018-07-14T00:54:47.522Z,81.71
2018-07-14T00:55:26.531Z,81.71
2018-07-14T00:56:41.025Z,81.86
2018-07-14T00:57:48.026Z,81.77
2018-07-14T00:58:27.033Z,81.90
2018-07-14T00:59:27.036Z,81.57
2018-07-14T01:00:26.651Z,81.77
2018-07-14T01:01:27.525Z,82.15
2018-07-14T01:02:27.525Z,82.43
2018-07-14T01:03:26.998Z,82.15
2018-07-14T01:05:59.240Z,82.24
2018-07-14T01:07:20.248Z,81.77
2018-07-14T01:07:59.249Z,81.67
2018-07-14T01:10:31.007Z,81.20
2018-07-14T01:11:31.011Z,80.71
2018-07-14T01:12:52.010Z,80.90
2018-07-14T01:13:33.501Z,80.71
2018-07-14T01:14:31.501Z,81.10
2018-07-14T01:15:52.501Z,81.57
2018-07-14T01:16:31.503Z,82.24
2018-07-14T01:17:53.094Z,82.24
2018-07-14T01:18:33.999Z,82.34
2018-07-14T01:19:34.933Z,82.82
2018-07-14T01:20:32.001Z,82.92
2018-07-14T01:21:32.501Z,82.34
2018-07-14T01:22:32.501Z,81.96
2018-07-14T01:23:32.501Z,82.24
2018-07-14T01:24:32.503Z,81.67
2018-07-14T01:25:34.462Z,82.24
2018-07-14T01:26:33.000Z,81.96
2018-07-14T01:27:33.942Z,82.34
2018-07-14T01:28:32.448Z,82.43
2018-07-14T01:29:53.523Z,82.34
2018-07-14T01:30:54.508Z,81.20
2018-07-14T01:31:33.506Z,80.29
2018-07-14T01:32:34.499Z,81.34
2018-07-14T01:33:33.501Z,82.01
2018-07-14T01:34:55.001Z,82.97
2018-07-14T01:35:34.004Z,82.68
2018-07-14T01:36:34.001Z,82.97
2018-07-14T01:37:34.000Z,83.64
2018-07-14T01:38:33.602Z,83.45
2018-07-14T01:39:34.500Z,82.97
2018-07-14T01:40:55.501Z,82.11
2018-07-14T01:41:34.505Z,82.68
2018-07-14T01:42:57.440Z,83.06
2018-07-14T01:43:34.175Z,83.26
2018-07-14T01:44:35.433Z,83.36
2018-07-14T01:45:35.957Z,83.45
2018-07-14T01:46:56.001Z,83.45
2018-07-14T01:47:55.458Z,83.83
2018-07-14T01:48:35.501Z,83.64
2018-07-14T01:51:12.866Z,83.45
2018-07-14T01:53:59.361Z,82.68
2018-07-14T01:54:40.320Z,82.59
2018-07-14T01:55:59.407Z,82.97
2018-07-14T01:56:38.368Z,82.49
2018-07-14T01:57:59.868Z,82.87
2018-07-14T01:58:38.863Z,83.06
2018-07-14T01:59:38.868Z,83.54
2018-07-14T02:00:38.872Z,83.89
2018-07-14T02:01:54.368Z,83.83
2018-07-14T02:04:16.201Z,83.60
2018-07-14T02:05:10.759Z,83.60
2018-07-14T02:06:10.768Z,83.69
2018-07-14T02:08:44.506Z,83.89
2018-07-14T02:09:42.513Z,83.98
2018-07-14T02:11:03.523Z,83.79
2018-07-14T02:12:04.068Z,83.79
2018-07-14T02:12:43.022Z,83.31
2018-07-14T02:13:45.445Z,83.31
2018-07-14T02:14:45.513Z,83.69
2018-07-14T02:15:42.612Z,83.79
2018-07-14T02:16:43.513Z,83.79
2018-07-14T02:17:43.514Z,83.83
2018-07-14T02:18:43.518Z,83.83
2018-07-14T02:19:44.013Z,84.17
2018-07-14T02:20:44.013Z,84.46
2018-07-14T02:21:44.013Z,83.83
2018-07-14T02:22:43.485Z,83.83
2018-07-14T02:24:05.512Z,83.73
2018-07-14T02:24:44.513Z,83.54
2018-07-14T02:25:44.513Z,83.16
2018-07-14T02:26:44.513Z,83.64
2018-07-14T02:28:06.013Z,83.26
2018-07-14T02:28:45.075Z,82.97
2018-07-14T02:29:45.020Z,83.06
2018-07-14T02:30:45.014Z,82.87
2018-07-14T02:31:45.515Z,83.06
2018-07-14T02:33:06.945Z,83.06
2018-07-14T02:33:45.513Z,82.87
2018-07-14T02:34:46.968Z,83.06
2018-07-14T02:35:45.517Z,82.40
2018-07-14T02:36:45.513Z,82.78
2018-07-14T02:37:45.513Z,82.68
2018-07-14T02:43:20.106Z,83.45
2018-07-14T02:44:34.113Z,83.26
2018-07-14T02:45:20.117Z,83.36
2018-07-14T02:46:20.615Z,82.93
2018-07-14T02:47:20.615Z,82.64
2018-07-14T02:48:20.613Z,82.93
2018-07-14T02:49:20.619Z,83.45
2018-07-14T02:52:13.378Z,83.31
2018-07-14T02:52:53.377Z,83.79
2018-07-14T02:53:52.373Z,83.31
2018-07-14T02:56:45.139Z,83.98
2018-07-14T02:57:24.147Z,83.40
2018-07-14T03:01:27.334Z,83.12
2018-07-14T03:02:27.345Z,83.22
2018-07-14T03:03:26.816Z,83.89
2018-07-14T03:05:59.078Z,83.22
2018-07-14T03:07:00.521Z,83.79
2018-07-14T03:07:59.078Z,83.50
2018-07-14T03:08:58.549Z,83.69
2018-07-14T03:09:59.565Z,84.46
2018-07-14T03:10:59.565Z,83.50
2018-07-14T03:11:59.565Z,83.40
2018-07-14T03:12:59.651Z,83.79
2018-07-14T03:14:00.066Z,84.17
2018-07-14T03:15:00.089Z,83.98
2018-07-14T03:16:02.063Z,84.08
2018-07-14T03:17:00.070Z,84.17
2018-07-14T03:18:21.067Z,83.98
2018-07-14T03:19:25.641Z,83.40
2018-07-14T03:21:33.396Z,83.79
2018-07-14T03:22:31.924Z,83.89
2018-07-14T03:23:32.429Z,83.40
2018-07-14T03:24:54.359Z,83.79
2018-07-14T03:27:03.217Z,84.36
2018-07-14T03:28:03.970Z,84.27
2018-07-14T03:29:04.949Z,83.79
2018-07-14T03:30:04.460Z,83.03
2018-07-14T03:31:05.449Z,83.50
2018-07-14T03:32:04.451Z,83.98
2018-07-14T03:33:04.455Z,83.65
2018-07-14T03:34:25.951Z,83.75
2018-07-14T03:35:04.952Z,84.23
2018-07-14T03:36:06.383Z,83.56
2018-07-14T03:37:04.960Z,83.65
2018-07-14T03:39:37.231Z,84.23
2018-07-14T03:40:37.245Z,84.23
2018-07-14T03:41:38.229Z,84.52
2018-07-14T03:44:08.982Z,85.09
2018-07-14T03:45:08.988Z,84.61
2018-07-14T03:46:08.989Z,85.38
2018-07-14T03:47:09.495Z,85.18
2018-07-14T03:48:09.489Z,85.38
2018-07-14T03:49:09.492Z,85.47
2018-07-14T03:50:09.489Z,85.18
2018-07-14T03:51:09.988Z,85.28
2018-07-14T03:52:10.986Z,85.66
2018-07-14T03:53:30.988Z,85.38
2018-07-14T03:54:30.992Z,85.18
2018-07-14T03:55:31.488Z,85.75
2018-07-14T03:57:42.360Z,85.66
2018-07-14T03:58:42.368Z,84.89
2018-07-14T04:00:03.370Z,84.99
2018-07-14T04:00:42.366Z,84.80
2018-07-14T04:02:09.867Z,84.89
2018-07-14T04:04:14.306Z,84.94
2018-07-14T04:05:14.277Z,85.03
2018-07-14T04:09:19.297Z,85.03
2018-07-14T04:11:49.235Z,84.27
2018-07-14T04:12:49.243Z,84.36
2018-07-14T04:13:49.245Z,84.36
2018-07-14T04:14:51.180Z,84.55
2018-07-14T04:16:10.739Z,84.65
2018-07-14T04:16:49.746Z,84.36
2018-07-14T04:17:49.741Z,84.80
2018-07-14T04:18:50.240Z,84.94
2018-07-14T04:19:50.240Z,85.47
2018-07-14T04:20:50.240Z,85.32
2018-07-14T04:21:50.236Z,85.47
2018-07-14T04:23:11.748Z,84.75
2018-07-14T04:23:50.740Z,85.22
2018-07-14T04:24:52.196Z,85.32
2018-07-14T04:25:50.739Z,85.41
2018-07-14T04:28:22.490Z,85.22
2018-07-14T04:29:22.498Z,85.22
2018-07-14T04:30:22.512Z,85.51
2018-07-14T04:31:22.994Z,85.03
2018-07-14T04:32:22.997Z,84.84
2018-07-14T04:33:22.998Z,84.75
2018-07-14T04:34:22.999Z,84.94
2018-07-14T04:35:22.594Z,84.94
2018-07-14T04:36:44.497Z,85.32
2018-07-14T04:37:23.497Z,85.41
2018-07-14T04:38:23.496Z,85.13
2018-07-14T04:39:23.116Z,85.89
2018-07-14T04:40:24.006Z,85.80
2018-07-14T04:41:23.997Z,85.99
2018-07-14T04:42:24.037Z,85.51
2018-07-14T04:43:24.500Z,85.22
2018-07-14T04:44:24.497Z,85.41
2018-07-14T04:45:24.498Z,85.61
2018-07-14T04:46:24.498Z,85.51
2018-07-14T04:47:24.100Z,85.89
2018-07-14T04:48:24.997Z,85.71
2018-07-14T04:49:25.057Z,85.41
2018-07-14T04:50:45.996Z,85.51
2018-07-14T04:51:46.963Z,85.71
2018-07-14T04:53:56.822Z,85.99
2018-07-14T04:54:56.832Z,85.36
2018-07-14T04:59:21.016Z,86.18
2018-07-14T05:01:31.522Z,85.99
2018-07-14T05:02:30.871Z,86.47
2018-07-14T05:03:31.519Z,86.70
2018-07-14T05:04:32.019Z,86.66
2018-07-14T05:05:53.020Z,86.51
2018-07-14T05:06:32.124Z,86.90
2018-07-14T05:07:53.526Z,86.61
2018-07-14T05:08:32.520Z,86.70
2018-07-14T05:09:32.519Z,86.51
2018-07-14T05:10:32.520Z,86.70
2018-07-14T05:11:32.525Z,86.80
2018-07-14T05:12:33.020Z,86.61
2018-07-14T05:13:54.020Z,85.94
2018-07-14T05:14:33.041Z,86.13
2018-07-14T05:15:36.451Z,86.13
2018-07-14T05:16:33.517Z,86.22
2018-07-14T05:19:04.909Z,86.27
2018-07-14T05:20:04.917Z,86.46
2018-07-14T05:21:04.916Z,86.17
2018-07-14T05:22:05.416Z,86.65
2018-07-14T05:23:26.416Z,86.36
2018-07-14T05:24:05.413Z,86.36
2018-07-14T05:25:05.420Z,86.27
2018-07-14T05:29:08.596Z,86.27
2018-07-14T05:30:08.608Z,86.17
2018-07-14T05:31:10.044Z,86.55
2018-07-14T05:34:01.304Z,86.12
2018-07-14T05:34:40.314Z,86.31
2018-07-14T05:35:40.314Z,86.27
2018-07-14T05:36:46.812Z,85.74
2018-07-14T05:38:01.013Z,85.64
2018-07-14T05:38:46.814Z,85.74
2018-07-14T05:40:01.812Z,85.64
2018-07-14T05:41:01.817Z,85.83
2018-07-14T05:43:12.574Z,85.64
2018-07-14T05:44:12.571Z,85.64
2018-07-14T05:45:14.546Z,85.06
2018-07-14T05:46:34.070Z,85.39
2018-07-14T05:47:13.099Z,85.88
2018-07-14T05:48:13.070Z,85.39
2018-07-14T05:49:34.071Z,85.11
2018-07-14T05:50:15.040Z,85.21
2018-07-14T05:52:45.856Z,84.91
2018-07-14T05:53:44.924Z,84.25
2018-07-14T05:54:44.924Z,84.44
2018-07-14T05:56:06.425Z,84.72
2018-07-14T05:58:41.277Z,84.48
2018-07-14T05:59:16.812Z,84.48
2018-07-14T06:00:16.816Z,84.67
2018-07-14T06:01:16.462Z,84.09
2018-07-14T06:04:09.707Z,83.61
2018-07-14T06:04:48.713Z,83.65
2018-07-14T06:05:50.151Z,83.37
2018-07-14T06:07:03.213Z,83.56
2018-07-14T06:08:10.215Z,84.04
2018-07-14T06:08:51.648Z,83.65
2018-07-14T06:10:10.214Z,83.56
2018-07-14T06:11:12.174Z,82.12
2018-07-14T06:11:49.718Z,82.12
2018-07-14T06:12:51.737Z,81.93
2018-07-14T06:13:49.715Z,81.49
2018-07-14T06:15:10.294Z,81.40
2018-07-14T06:17:21.644Z,81.20
2018-07-14T06:18:42.551Z,80.82
2018-07-14T06:19:23.526Z,81.01
2018-07-14T06:21:53.278Z,80.63
2018-07-14T06:22:53.298Z,80.91
2018-07-14T06:26:56.381Z,79.61
2018-07-14T06:27:57.821Z,79.61
2018-07-14T06:28:56.388Z,79.90
2018-07-14T06:29:56.888Z,79.61
2018-07-14T06:30:56.889Z,78.78
2018-07-14T06:31:56.912Z,79.27
2018-07-14T06:32:56.895Z,77.53
2018-07-14T06:33:57.393Z,77.92
2018-07-14T06:35:18.392Z,78.50
2018-07-14T06:35:57.394Z,78.63
2018-07-14T06:36:57.399Z,78.25
2018-07-14T06:38:19.963Z,74.88
2018-07-14T06:38:57.889Z,75.65
2018-07-14T06:39:57.890Z,75.46
2018-07-14T06:40:57.889Z,74.88
2018-07-14T06:42:20.321Z,74.98
2018-07-14T06:42:58.389Z,74.05
2018-07-14T06:44:20.821Z,74.63
2018-07-14T06:44:58.389Z,73.67
2018-07-14T06:46:19.890Z,72.90
2018-07-14T06:46:58.889Z,73.09
2018-07-14T06:47:58.889Z,72.45
2018-07-14T06:49:19.891Z,71.97
2018-07-14T06:50:01.393Z,71.78
2018-07-14T06:50:59.384Z,70.53
2018-07-14T06:53:51.916Z,71.01
2018-07-14T06:54:30.267Z,70.24
2018-07-14T06:55:30.925Z,70.24
2018-07-14T06:56:52.424Z,70.28
2018-07-14T06:57:31.424Z,70.66
2018-07-14T06:58:31.423Z,70.47
2018-07-14T06:59:31.424Z,70.18
2018-07-14T07:00:52.007Z,70.76
2018-07-14T07:01:31.924Z,70.28
2018-07-14T07:02:52.924Z,68.77
2018-07-14T07:03:31.929Z,67.71
2018-07-14T07:04:32.425Z,65.50
2018-07-14T07:05:53.423Z,66.17
2018-07-14T07:06:32.424Z,65.78
2018-07-14T07:07:33.856Z,65.88
2018-07-14T07:08:32.923Z,66.11
2018-07-14T07:09:32.924Z,63.50
2018-07-14T07:10:53.941Z,62.35
2018-07-14T07:11:32.924Z,63.12
2018-07-14T07:12:33.424Z,63.70
2018-07-14T07:13:32.679Z,63.12
2018-07-14T07:14:33.460Z,62.15
2018-07-14T07:15:54.425Z,61.38
2018-07-14T07:16:33.948Z,61.38
2018-07-14T07:17:54.930Z,61.71
2018-07-14T07:18:33.291Z,61.32
2018-07-14T07:19:54.393Z,59.68
2018-07-14T07:20:34.424Z,59.58
2018-07-14T07:21:56.857Z,60.55
2018-07-14T07:22:34.424Z,59.00
2018-07-14T07:23:33.777Z,58.42
2018-07-14T07:24:34.434Z,59.00
2018-07-14T07:25:34.964Z,59.42
2018-07-14T07:26:55.925Z,59.80
2018-07-14T07:27:34.931Z,59.42
2018-07-14T07:28:34.925Z,58.75
2018-07-14T07:29:56.425Z,58.55
2018-07-14T07:30:35.501Z,58.97
2018-07-14T07:31:35.428Z,59.06
2018-07-14T07:32:37.381Z,57.14
2018-07-14T07:33:35.428Z,56.94
2018-07-14T07:34:56.950Z,57.23
2018-07-14T07:35:58.865Z,58.10
2018-07-14T07:36:56.946Z,58.48
2018-07-14T07:37:56.928Z,58.10
2018-07-14T07:38:56.925Z,58.03
2018-07-14T07:39:37.872Z,56.29
2018-07-14T07:40:57.425Z,56.29
2018-07-14T07:41:36.425Z,56.39
2018-07-14T07:42:36.426Z,56.39
2018-07-14T07:43:36.425Z,55.13
2018-07-14T07:44:57.925Z,55.42
2018-07-14T07:45:38.926Z,56.48
2018-07-14T07:46:57.925Z,55.45
2018-07-14T07:47:57.925Z,55.26
2018-07-14T07:48:37.433Z,55.07
2018-07-14T07:51:23.320Z,53.42
2018-07-14T07:52:09.327Z,53.23
2018-07-14T07:53:09.327Z,52.84
2018-07-14T07:54:30.828Z,52.36
2018-07-14T07:55:30.830Z,52.45
2018-07-14T07:56:09.830Z,53.52
2018-07-14T07:57:09.828Z,53.71
2018-07-14T07:58:10.327Z,55.26
2018-07-14T08:01:04.715Z,53.35
2018-07-14T08:01:43.723Z,53.16
2018-07-14T08:02:43.723Z,53.57
2018-07-14T08:03:43.722Z,51.64
2018-07-14T08:04:44.222Z,50.98
2018-07-14T08:07:36.601Z,52.44
2018-07-14T08:08:15.604Z,52.24
2018-07-14T08:09:17.039Z,52.53
2018-07-14T08:10:16.107Z,52.53
2018-07-14T08:11:17.584Z,52.85
2018-07-14T08:12:16.112Z,51.68
2018-07-14T08:13:16.108Z,51.68
2018-07-14T08:14:37.608Z,51.10
2018-07-14T08:15:16.608Z,52.08
2018-07-14T08:16:16.608Z,52.66
2018-07-14T08:17:16.608Z,51.40
2018-07-14T08:19:48.361Z,49.95
2018-07-14T08:21:15.370Z,49.46
2018-07-14T08:21:48.369Z,49.29
2018-07-14T08:25:51.581Z,46.77
2018-07-14T08:26:50.930Z,46.67
2018-07-14T08:27:51.583Z,46.77
2018-07-14T08:28:52.085Z,49.00
2018-07-14T08:29:52.080Z,48.44
2018-07-14T08:30:52.084Z,47.19
2018-07-14T08:31:52.084Z,47.28
2018-07-14T08:34:23.839Z,48.93
2018-07-14T08:35:23.196Z,46.12
2018-07-14T08:36:23.852Z,45.64
2018-07-14T08:37:24.345Z,46.41
2018-07-14T08:38:24.347Z,46.89
2018-07-14T08:40:24.346Z,47.40
2018-07-14T08:41:25.792Z,45.56
2018-07-14T08:42:24.852Z,46.82
2018-07-14T08:43:24.847Z,47.47
2018-07-14T08:44:24.848Z,48.27
2018-07-14T08:45:31.347Z,49.24
2018-07-14T08:46:25.356Z,49.05
2018-07-14T08:47:25.347Z,47.60
2018-07-14T08:48:25.349Z,45.75
2018-07-14T08:49:25.848Z,46.33
2018-07-14T08:50:25.909Z,49.24
2018-07-14T08:51:25.872Z,47.98
2018-07-14T08:52:25.846Z,46.62
2018-07-14T08:53:28.348Z,49.07
2018-07-14T08:55:59.192Z,43.82
2018-07-14T08:56:57.760Z,42.75
2018-07-14T08:57:57.760Z,43.04
2018-07-14T08:58:58.259Z,44.40
2018-07-14T08:59:58.257Z,45.85
2018-07-14T09:02:29.765Z,44.03
2018-07-14T09:03:29.128Z,44.81
2018-07-14T09:06:22.416Z,41.49
2018-07-14T09:07:03.389Z,42.67
2018-07-14T09:08:01.394Z,43.35
2018-07-14T09:10:33.171Z,42.40
2018-07-14T09:13:28.369Z,41.43
2018-07-14T09:14:26.384Z,40.34
2018-07-14T09:15:05.377Z,40.25
2018-07-14T09:16:05.374Z,41.22
2018-07-14T09:18:39.170Z,40.95
2018-07-14T09:19:38.637Z,42.11
2018-07-14T09:20:58.176Z,41.72
2018-07-14T09:21:58.684Z,39.98
2018-07-14T09:22:58.677Z,40.26
2018-07-14T09:23:37.677Z,40.39
2018-07-14T09:24:58.677Z,40.95
2018-07-14T09:25:58.270Z,41.33
2018-07-14T09:26:59.172Z,39.69
2018-07-14T09:27:38.181Z,39.69
2018-07-14T09:28:38.186Z,41.16
2018-07-14T09:29:38.678Z,41.06
2018-07-14T09:30:37.908Z,41.36
2018-07-14T09:31:38.697Z,41.06
2018-07-14T09:32:38.734Z,40.00
2018-07-14T09:33:39.177Z,38.54
2018-07-14T09:34:38.439Z,40.09
2018-07-14T09:36:01.640Z,40.29
2018-07-14T09:36:39.179Z,39.41
2018-07-14T09:37:39.686Z,41.16
2018-07-14T09:38:39.678Z,40.39
2018-07-14T09:39:39.678Z,38.44
2018-07-14T09:40:39.679Z,40.09
2018-07-14T09:41:40.191Z,39.90
2018-07-14T09:44:11.585Z,40.21
2018-07-14T09:45:11.591Z,38.95
2018-07-14T09:46:11.078Z,39.24
2018-07-14T09:48:43.327Z,38.39
2018-07-14T09:49:43.337Z,38.67
2018-07-14T09:52:15.011Z,37.70
2018-07-14T09:53:14.369Z,37.30
2018-07-14T09:54:15.023Z,37.39
2018-07-14T09:55:15.578Z,39.43
2018-07-14T09:57:46.924Z,39.14
2018-07-14T09:58:46.932Z,38.17
2018-07-14T10:01:41.576Z,38.67
2018-07-14T10:02:17.932Z,37.99
2018-07-14T10:03:32.667Z,37.90
2018-07-14T10:06:04.429Z,38.29
2018-07-14T10:06:51.792Z,37.51
2018-07-14T10:07:56.364Z,37.22
2018-07-14T10:10:43.134Z,38.67
2018-07-14T10:11:44.139Z,38.21
2018-07-14T10:12:43.144Z,36.94
2018-07-14T10:13:22.640Z,38.11
2018-07-14T10:14:22.643Z,40.17
2018-07-14T10:15:22.664Z,38.32
2018-07-14T10:16:43.655Z,40.27
2018-07-14T10:17:22.348Z,38.44
2018-07-14T10:18:44.141Z,37.76
2018-07-14T10:19:45.075Z,36.69
2018-07-14T10:20:23.141Z,35.81
2018-07-14T10:21:23.143Z,37.87
2018-07-14T10:22:25.647Z,37.48
2018-07-14T10:23:26.574Z,38.46
2018-07-14T10:24:23.639Z,37.08
2018-07-14T10:25:23.774Z,38.07
2018-07-14T10:26:25.111Z,37.00
2018-07-14T10:27:23.350Z,36.88
2018-07-14T10:28:24.178Z,36.49
2018-07-14T10:29:24.153Z,36.79
2018-07-14T10:30:24.645Z,35.50
2018-07-14T10:31:24.642Z,34.72
2018-07-14T10:32:24.649Z,36.75
2018-07-14T10:33:24.643Z,37.62
2018-07-14T10:34:39.146Z,38.09
2018-07-14T10:35:25.147Z,38.39
2018-07-14T10:36:25.156Z,40.23
2018-07-14T10:37:25.143Z,40.52
2018-07-14T10:38:27.123Z,40.42
2018-07-14T10:39:46.645Z,39.65
2018-07-14T10:40:25.643Z,39.26
2018-07-14T10:41:25.644Z,41.39
2018-07-14T10:42:46.233Z,40.50
2018-07-14T10:43:26.144Z,40.89
2018-07-14T10:44:26.148Z,41.30
2018-07-14T10:45:32.645Z,41.59
2018-07-14T10:47:57.917Z,38.21
2018-07-14T10:48:57.921Z,39.57
2018-07-14T10:49:57.919Z,38.98
2018-07-14T10:51:12.426Z,38.81
2018-07-14T10:52:04.420Z,38.81
2018-07-14T10:52:58.428Z,37.35
2018-07-14T10:55:30.073Z,36.73
2018-07-14T10:58:00.955Z,38.21
2018-07-14T10:59:01.636Z,39.47
2018-07-14T11:02:01.719Z,37.74
2018-07-14T11:02:34.739Z,38.23
2018-07-14T11:03:32.725Z,37.08
2018-07-14T11:04:33.840Z,37.27
2018-07-14T11:05:54.782Z,37.56
2018-07-14T11:06:33.780Z,38.15
2018-07-14T11:07:33.780Z,37.77
2018-07-14T11:08:33.782Z,38.65
2018-07-14T11:09:34.283Z,37.87
2018-07-14T11:10:34.281Z,35.93
2018-07-14T11:11:34.283Z,36.61
2018-07-14T11:12:34.285Z,35.85
2018-07-14T11:15:06.060Z,35.46
2018-07-14T11:16:06.068Z,34.78
2018-07-14T11:17:06.084Z,35.16
2018-07-14T11:18:06.575Z,34.39
2018-07-14T11:19:06.569Z,34.29
2018-07-14T11:20:06.570Z,33.72
2018-07-14T11:21:06.566Z,34.40
2018-07-14T11:22:28.068Z,33.61
2018-07-14T11:23:28.068Z,34.50
2018-07-14T11:24:07.105Z,35.08
2018-07-14T11:28:34.131Z,34.61
2018-07-14T11:29:10.198Z,33.73
2018-07-14T11:30:11.705Z,34.32
2018-07-14T11:33:03.919Z,34.73
2018-07-14T11:33:41.952Z,33.56
2018-07-14T11:35:02.956Z,32.48
2018-07-14T11:36:04.450Z,32.48
2018-07-14T11:37:03.452Z,31.70
2018-07-14T11:39:13.789Z,32.48
2018-07-14T11:40:14.492Z,33.56
2018-07-14T11:41:14.491Z,33.18
2018-07-14T11:42:35.992Z,32.70
2018-07-14T11:43:14.992Z,33.58
2018-07-14T11:44:15.048Z,33.36
2018-07-14T11:45:14.435Z,32.19
2018-07-14T11:46:14.540Z,33.15
2018-07-14T11:48:46.821Z,32.47
2018-07-14T11:49:46.825Z,33.90
2018-07-14T11:51:07.823Z,33.88
2018-07-14T11:51:47.287Z,33.69
2018-07-14T11:52:47.322Z,35.34
2018-07-14T11:53:47.322Z,35.73
2018-07-14T11:54:47.322Z,35.25
2018-07-14T11:55:47.830Z,37.58
2018-07-14T11:56:47.822Z,35.73
2018-07-14T11:57:47.824Z,34.86
2018-07-14T11:58:47.823Z,33.88
2018-07-14T11:59:48.323Z,34.95
2018-07-14T12:00:49.754Z,34.17
2018-07-14T12:01:50.325Z,33.88
2018-07-14T12:04:19.957Z,33.88
2018-07-14T12:05:21.968Z,34.37
2018-07-14T12:06:20.964Z,34.95
2018-07-14T12:07:41.471Z,34.86
2018-07-14T12:09:52.791Z,34.97
2018-07-14T12:10:51.859Z,34.09
2018-07-14T12:11:51.337Z,34.09
2018-07-14T12:13:15.366Z,35.06
2018-07-14T12:15:23.032Z,36.43
2018-07-14T12:16:44.777Z,36.33
2018-07-14T12:17:23.773Z,38.28
2018-07-14T12:18:45.289Z,38.46
2018-07-14T12:19:23.500Z,37.10
2018-07-14T12:20:26.274Z,37.68
2018-07-14T12:21:24.270Z,36.98
2018-07-14T12:22:24.845Z,35.91
2018-07-14T12:24:56.197Z,35.99
2018-07-14T12:26:16.536Z,36.96
2018-07-14T12:26:56.202Z,37.54
2018-07-14T12:27:57.637Z,36.67
2018-07-14T12:28:56.704Z,37.43
2018-07-14T12:29:56.705Z,37.92
2018-07-14T12:30:56.705Z,38.60
2018-07-14T12:31:56.312Z,37.92
2018-07-14T12:32:57.207Z,37.43
2018-07-14T12:33:57.204Z,37.82
2018-07-14T12:35:18.223Z,36.94
2018-07-14T12:35:57.713Z,36.26
2018-07-14T12:36:57.705Z,37.62
2018-07-14T12:37:57.705Z,36.85
2018-07-14T12:38:57.705Z,36.94
2018-07-14T12:43:22.535Z,37.72
2018-07-14T12:44:01.534Z,37.04
2018-07-14T12:45:03.535Z,39.67
2018-07-14T12:46:03.013Z,42.87
2018-07-14T12:47:02.033Z,45.11
2018-07-14T12:48:02.036Z,45.50
2018-07-14T12:49:08.035Z,46.37
2018-07-14T12:50:23.535Z,45.79
2018-07-14T12:51:23.535Z,48.97
2018-07-14T12:52:04.535Z,50.04
2018-07-14T12:53:02.535Z,49.46
2018-07-14T12:55:36.779Z,41.49
2018-07-14T12:58:05.813Z,44.51
2018-07-14T12:59:05.819Z,46.64
2018-07-14T13:00:07.920Z,48.00
2018-07-14T13:01:07.765Z,49.58
2018-07-14T13:03:37.682Z,49.39
2018-07-14T13:04:37.702Z,41.42
2018-07-14T13:05:37.704Z,37.26
2018-07-14T13:06:39.726Z,41.67
2018-07-14T13:07:38.196Z,42.96
2018-07-14T13:08:38.192Z,34.11
2018-07-14T13:09:59.189Z,31.99
2018-07-14T13:10:37.797Z,33.17
2018-07-14T13:11:38.691Z,33.07
2018-07-14T13:12:38.698Z,33.64
2018-07-14T13:13:38.723Z,32.47
2018-07-14T13:19:34.356Z,33.85
2018-07-14T13:20:14.797Z,34.72
2018-07-14T13:21:34.363Z,34.53
2018-07-14T13:22:13.366Z,34.63
2018-07-14T13:23:13.929Z,34.72
2018-07-14T13:24:35.862Z,35.99
2018-07-14T13:25:13.873Z,36.38
2018-07-14T13:26:13.863Z,37.16
2018-07-14T13:27:14.815Z,35.34
2018-07-14T13:28:14.395Z,34.00
2018-07-14T13:29:14.364Z,32.47
2018-07-14T13:30:13.604Z,32.39
2018-07-14T13:31:14.365Z,31.64
2018-07-14T13:32:36.296Z,30.76
2018-07-14T13:33:14.867Z,30.79
2018-07-14T13:34:35.874Z,30.71
2018-07-14T13:35:14.865Z,28.96
2018-07-14T13:36:14.922Z,28.01
2018-07-14T13:37:14.469Z,26.75
2018-07-14T13:38:36.365Z,26.46
2018-07-14T13:39:15.372Z,26.17
2018-07-14T13:40:36.368Z,26.45
2018-07-14T13:41:15.868Z,25.56
2018-07-14T13:42:15.865Z,25.77
2018-07-14T13:43:15.866Z,25.68
2018-07-14T13:44:15.865Z,26.07
2018-07-14T13:45:15.506Z,26.58
2018-07-14T13:46:16.365Z,26.46
2018-07-14T13:48:47.891Z,25.48
2018-07-14T13:49:47.902Z,26.15
2018-07-14T13:51:08.901Z,25.78
2018-07-14T13:52:09.397Z,27.23
2018-07-14T13:54:19.787Z,28.82
2018-07-14T13:55:21.256Z,29.98
2018-07-14T13:56:19.795Z,31.45
2018-07-14T13:58:51.562Z,30.65
2018-07-14T14:00:12.572Z,30.73
2018-07-14T14:00:51.569Z,30.83
2018-07-14T14:01:54.070Z,30.83
2018-07-14T14:03:13.072Z,31.49
2018-07-14T14:03:52.071Z,31.41
2018-07-14T14:04:52.072Z,30.81
2018-07-14T14:05:52.573Z,30.52
2018-07-14T14:06:53.543Z,30.93
2018-07-14T14:08:13.570Z,31.79
2018-07-14T14:08:53.567Z,31.40
2018-07-14T14:09:53.070Z,33.64
2018-07-14T14:10:53.073Z,33.82
2018-07-14T14:11:53.076Z,32.39
2018-07-14T14:15:56.525Z,31.16
2018-07-14T14:16:56.526Z,31.64
2018-07-14T14:17:56.537Z,31.04
2018-07-14T14:20:57.761Z,33.26
2018-07-14T14:21:49.329Z,33.95
2018-07-14T14:22:49.331Z,33.75
2018-07-14T14:23:28.830Z,33.93
2018-07-14T14:26:27.259Z,38.10
2018-07-14T14:27:00.254Z,39.67
2018-07-14T14:28:21.253Z,37.89
2018-07-14T14:29:14.755Z,38.67
2018-07-14T14:30:21.755Z,40.33
2018-07-14T14:34:25.015Z,41.09
2018-07-14T14:35:04.029Z,41.28
2018-07-14T14:36:04.022Z,41.85
2018-07-14T14:37:03.635Z,42.94
2018-07-14T14:38:25.521Z,41.05
2018-07-14T14:40:38.028Z,33.98
2018-07-14T14:41:36.042Z,31.95
2018-07-14T14:42:36.048Z,29.70
2018-07-14T14:43:36.553Z,29.91
2018-07-14T14:44:57.556Z,28.67
2018-07-14T14:45:38.541Z,28.29
2018-07-14T14:46:58.540Z,27.33
2018-07-14T14:47:58.047Z,26.84
2018-07-14T14:48:37.101Z,27.64
2018-07-14T14:49:57.429Z,25.70
2018-07-14T14:50:37.042Z,25.20
2018-07-14T14:51:58.542Z,25.01
2018-07-14T14:52:37.538Z,24.32
2018-07-14T14:53:39.551Z,25.31
2018-07-14T14:54:37.547Z,26.84
2018-07-14T14:55:38.046Z,28.89
2018-07-14T14:56:38.043Z,27.03
2018-07-14T14:57:38.048Z,27.03
2018-07-14T14:58:38.057Z,28.57
2018-07-14T15:04:12.764Z,31.51
2018-07-14T15:05:12.771Z,32.57
2018-07-14T15:06:12.772Z,31.19
2018-07-14T15:07:34.272Z,31.19
2018-07-14T15:08:34.275Z,30.99
2018-07-14T15:09:33.609Z,31.57
2018-07-14T15:10:13.272Z,32.75
2018-07-14T15:11:13.774Z,33.04
2018-07-14T15:12:13.781Z,32.55
2018-07-14T15:13:14.708Z,33.53
2018-07-14T15:17:16.953Z,38.38
2018-07-14T15:18:16.960Z,39.84
2018-07-14T15:19:24.457Z,41.40
2018-07-14T15:20:17.458Z,34.29
2018-07-14T15:21:17.465Z,32.63
2018-07-14T15:22:17.462Z,32.16
2018-07-14T15:23:17.499Z,31.80
2018-07-14T15:24:17.964Z,30.63
2018-07-14T15:25:17.972Z,29.86
2018-07-14T15:26:17.962Z,29.67
2018-07-14T15:27:17.962Z,30.84
2018-07-14T15:28:32.464Z,31.41
2018-07-14T15:29:18.484Z,31.70
2018-07-14T15:30:18.462Z,31.99
2018-07-14T15:31:18.463Z,33.17
2018-07-14T15:35:21.670Z,33.92
2018-07-14T15:39:25.579Z,39.65